sensor_id;sensor_type;location;lat;lon;timestamp;temperature;humidity
2839;DHT22;1427;48.510;9.060;2023-09-18T00:01:20;19.00;99.90
2839;DHT22;1427;48.510;9.060;2023-09-18T00:03:48;18.90;99.90
2839;DHT22;1427;48.510;9.060;2023-09-18T00:06:16;19.10;99.90
2839;DHT22;1427;48.510;9.060;2023-09-18T00:08:44;19.00;99.90
2839;DHT22;1427;48.510;9.060;2023-09-18T00:11:12;18.90;99.90
2839;DHT22;1427;48.510;9.060;2023-09-18T00:13:41;19.00;99.90
2839;DHT22;1427;48.510;9.060;2023-09-18T00:16:10;19.00;99.90
2839;DHT22;1427;48.510;9.060;2023-09-18T00:18:39;19.00;99.90
2839;DHT22;1427;48.510;9.060;2023-09-18T00:21:08;19.00;99.90
2839;DHT22;1427;48.510;9.060;2023-09-18T00:23:37;18.90;99.90
2839;DHT22;1427;48.510;9.060;2023-09-18T00:26:05;19.00;99.90
2839;DHT22;1427;48.510;9.060;2023-09-18T00:28:33;18.90;99.90
2839;DHT22;1427;48.510;9.060;2023-09-18T00:31:03;18.80;99.90
2839;DHT22;1427;48.510;9.060;2023-09-18T00:33:31;18.80;99.90
2839;DHT22;1427;48.510;9.060;2023-09-18T00:35:59;18.90;99.90
2839;DHT22;1427;48.510;9.060;2023-09-18T00:38:27;18.80;99.90
2839;DHT22;1427;48.510;9.060;2023-09-18T00:40:55;18.80;99.90
2839;DHT22;1427;48.510;9.060;2023-09-18T00:43:23;18.80;99.90
2839;DHT22;1427;48.510;9.060;2023-09-18T00:45:52;18.70;99.90
2839;DHT22;1427;48.510;9.060;2023-09-18T00:48:21;18.60;99.90
2839;DHT22;1427;48.510;9.060;2023-09-18T00:50:50;18.50;99.90
2839;DHT22;1427;48.510;9.060;2023-09-18T00:53:20;18.50;99.90
2839;DHT22;1427;48.510;9.060;2023-09-18T00:55:50;18.40;99.90
2839;DHT22;1427;48.510;9.060;2023-09-18T00:58:20;18.40;99.90
2839;DHT22;1427;48.510;9.060;2023-09-18T01:00:48;18.40;99.90
2839;DHT22;1427;48.510;9.060;2023-09-18T01:03:20;18.40;99.90
2839;DHT22;1427;48.510;9.060;2023-09-18T01:05:49;18.40;99.90
2839;DHT22;1427;48.510;9.060;2023-09-18T01:08:17;18.50;99.90
2839;DHT22;1427;48.510;9.060;2023-09-18T01:10:59;18.50;99.90
2839;DHT22;1427;48.510;9.060;2023-09-18T01:13:33;18.60;99.90
2839;DHT22;1427;48.510;9.060;2023-09-18T01:16:10;18.60;99.90
2839;DHT22;1427;48.510;9.060;2023-09-18T01:18:49;18.70;99.90
2839;DHT22;1427;48.510;9.060;2023-09-18T01:21:19;18.70;99.90
2839;DHT22;1427;48.510;9.060;2023-09-18T01:23:49;18.70;99.90
2839;DHT22;1427;48.510;9.060;2023-09-18T01:26:19;18.80;99.90
2839;DHT22;1427;48.510;9.060;2023-09-18T01:28:47;18.70;99.90
2839;DHT22;1427;48.510;9.060;2023-09-18T01:31:15;18.60;99.90
2839;DHT22;1427;48.510;9.060;2023-09-18T01:33:45;18.60;99.90
2839;DHT22;1427;48.510;9.060;2023-09-18T01:36:16;18.60;99.90
2839;DHT22;1427;48.510;9.060;2023-09-18T01:38:45;18.70;99.90
2839;DHT22;1427;48.510;9.060;2023-09-18T01:41:15;18.40;99.90
2839;DHT22;1427;48.510;9.060;2023-09-18T01:43:43;18.40;99.90
2839;DHT22;1427;48.510;9.060;2023-09-18T01:46:13;18.40;99.90
2839;DHT22;1427;48.510;9.060;2023-09-18T01:48:46;18.40;99.90
2839;DHT22;1427;48.510;9.060;2023-09-18T01:51:14;18.40;99.90
2839;DHT22;1427;48.510;9.060;2023-09-18T01:53:43;18.60;99.90
2839;DHT22;1427;48.510;9.060;2023-09-18T01:56:11;18.50;99.90
2839;DHT22;1427;48.510;9.060;2023-09-18T01:58:40;18.60;99.90
2839;DHT22;1427;48.510;9.060;2023-09-18T02:01:09;18.50;99.90
2839;DHT22;1427;48.510;9.060;2023-09-18T02:03:38;18.60;99.90
2839;DHT22;1427;48.510;9.060;2023-09-18T02:06:28;18.60;99.90
2839;DHT22;1427;48.510;9.060;2023-09-18T02:08:57;18.40;99.90
2839;DHT22;1427;48.510;9.060;2023-09-18T02:11:25;18.10;99.90
2839;DHT22;1427;48.510;9.060;2023-09-18T02:13:55;18.10;99.90
2839;DHT22;1427;48.510;9.060;2023-09-18T02:16:23;18.00;99.90
2839;DHT22;1427;48.510;9.060;2023-09-18T02:18:54;18.20;99.90
2839;DHT22;1427;48.510;9.060;2023-09-18T02:21:22;18.30;99.90
2839;DHT22;1427;48.510;9.060;2023-09-18T02:23:51;18.30;99.90
2839;DHT22;1427;48.510;9.060;2023-09-18T02:26:19;18.40;99.90
2839;DHT22;1427;48.510;9.060;2023-09-18T02:28:47;18.50;99.90
2839;DHT22;1427;48.510;9.060;2023-09-18T02:31:17;18.60;99.90
2839;DHT22;1427;48.510;9.060;2023-09-18T02:33:45;18.70;99.90
2839;DHT22;1427;48.510;9.060;2023-09-18T02:36:14;18.70;99.90
2839;DHT22;1427;48.510;9.060;2023-09-18T02:38:42;18.70;99.90
2839;DHT22;1427;48.510;9.060;2023-09-18T02:41:10;18.60;99.90
2839;DHT22;1427;48.510;9.060;2023-09-18T02:43:38;18.50;99.90
2839;DHT22;1427;48.510;9.060;2023-09-18T02:46:09;18.30;99.90
2839;DHT22;1427;48.510;9.060;2023-09-18T02:48:38;18.20;99.90
2839;DHT22;1427;48.510;9.060;2023-09-18T02:51:06;18.10;99.90
2839;DHT22;1427;48.510;9.060;2023-09-18T02:53:34;18.10;99.90
2839;DHT22;1427;48.510;9.060;2023-09-18T02:56:03;18.10;99.90
2839;DHT22;1427;48.510;9.060;2023-09-18T02:58:31;18.10;99.90
2839;DHT22;1427;48.510;9.060;2023-09-18T03:00:59;18.10;99.90
2839;DHT22;1427;48.510;9.060;2023-09-18T03:03:29;18.00;99.90
2839;DHT22;1427;48.510;9.060;2023-09-18T03:06:02;18.10;99.90
2839;DHT22;1427;48.510;9.060;2023-09-18T03:08:31;18.10;99.90
2839;DHT22;1427;48.510;9.060;2023-09-18T03:10:59;18.20;99.90
2839;DHT22;1427;48.510;9.060;2023-09-18T03:13:27;18.10;99.90
2839;DHT22;1427;48.510;9.060;2023-09-18T03:15:56;18.00;99.90
2839;DHT22;1427;48.510;9.060;2023-09-18T03:18:24;18.00;99.90
2839;DHT22;1427;48.510;9.060;2023-09-18T03:20:52;18.10;99.90
2839;DHT22;1427;48.510;9.060;2023-09-18T03:23:21;18.10;99.90
2839;DHT22;1427;48.510;9.060;2023-09-18T03:25:49;18.10;99.90
2839;DHT22;1427;48.510;9.060;2023-09-18T03:28:18;18.10;99.90
2839;DHT22;1427;48.510;9.060;2023-09-18T03:30:46;18.20;99.90
2839;DHT22;1427;48.510;9.060;2023-09-18T03:33:14;18.20;99.90
2839;DHT22;1427;48.510;9.060;2023-09-18T03:35:46;18.20;99.90
2839;DHT22;1427;48.510;9.060;2023-09-18T03:38:15;18.20;99.90
2839;DHT22;1427;48.510;9.060;2023-09-18T03:40:44;18.10;99.90
2839;DHT22;1427;48.510;9.060;2023-09-18T03:43:12;18.10;99.90
2839;DHT22;1427;48.510;9.060;2023-09-18T03:45:41;18.10;99.90
2839;DHT22;1427;48.510;9.060;2023-09-18T03:48:09;17.90;99.90
2839;DHT22;1427;48.510;9.060;2023-09-18T03:50:38;17.80;99.90
2839;DHT22;1427;48.510;9.060;2023-09-18T03:53:08;17.80;99.90
2839;DHT22;1427;48.510;9.060;2023-09-18T03:55:36;17.90;99.90
2839;DHT22;1427;48.510;9.060;2023-09-18T03:58:06;18.00;99.90
2839;DHT22;1427;48.510;9.060;2023-09-18T04:00:35;18.00;99.90
2839;DHT22;1427;48.510;9.060;2023-09-18T04:03:03;18.10;99.90
2839;DHT22;1427;48.510;9.060;2023-09-18T04:05:32;18.10;99.90
2839;DHT22;1427;48.510;9.060;2023-09-18T04:08:00;18.10;99.90
2839;DHT22;1427;48.510;9.060;2023-09-18T04:10:29;18.20;99.90
2839;DHT22;1427;48.510;9.060;2023-09-18T04:12:57;18.20;99.90
2839;DHT22;1427;48.510;9.060;2023-09-18T04:15:26;18.20;99.90
2839;DHT22;1427;48.510;9.060;2023-09-18T04:17:57;18.30;99.90
2839;DHT22;1427;48.510;9.060;2023-09-18T04:20:25;18.40;99.90
2839;DHT22;1427;48.510;9.060;2023-09-18T04:23:18;18.40;99.90
2839;DHT22;1427;48.510;9.060;2023-09-18T04:25:47;18.50;99.90
2839;DHT22;1427;48.510;9.060;2023-09-18T04:28:18;18.50;99.90
2839;DHT22;1427;48.510;9.060;2023-09-18T04:30:48;18.50;99.90
2839;DHT22;1427;48.510;9.060;2023-09-18T04:33:16;18.40;99.90
2839;DHT22;1427;48.510;9.060;2023-09-18T04:35:45;18.40;99.90
2839;DHT22;1427;48.510;9.060;2023-09-18T04:38:13;18.30;99.90
2839;DHT22;1427;48.510;9.060;2023-09-18T04:40:42;18.40;99.90
2839;DHT22;1427;48.510;9.060;2023-09-18T04:43:10;18.60;99.90
2839;DHT22;1427;48.510;9.060;2023-09-18T04:45:39;18.60;99.90
2839;DHT22;1427;48.510;9.060;2023-09-18T04:48:08;18.70;99.90
2839;DHT22;1427;48.510;9.060;2023-09-18T04:50:38;18.70;99.90
2839;DHT22;1427;48.510;9.060;2023-09-18T04:53:06;18.80;99.90
2839;DHT22;1427;48.510;9.060;2023-09-18T04:55:35;18.70;99.90
2839;DHT22;1427;48.510;9.060;2023-09-18T04:58:05;18.80;99.90
2839;DHT22;1427;48.510;9.060;2023-09-18T05:00:33;18.80;99.90
2839;DHT22;1427;48.510;9.060;2023-09-18T05:03:01;18.70;99.90
2839;DHT22;1427;48.510;9.060;2023-09-18T05:05:31;18.80;99.90
2839;DHT22;1427;48.510;9.060;2023-09-18T05:08:01;18.80;99.90
2839;DHT22;1427;48.510;9.060;2023-09-18T05:10:31;18.70;99.90
2839;DHT22;1427;48.510;9.060;2023-09-18T05:12:59;18.70;99.90
2839;DHT22;1427;48.510;9.060;2023-09-18T05:15:28;18.70;99.90
2839;DHT22;1427;48.510;9.060;2023-09-18T05:17:58;18.60;99.90
2839;DHT22;1427;48.510;9.060;2023-09-18T05:20:28;18.50;99.90
2839;DHT22;1427;48.510;9.060;2023-09-18T05:22:58;18.50;99.90
2839;DHT22;1427;48.510;9.060;2023-09-18T05:25:27;18.50;99.90
2839;DHT22;1427;48.510;9.060;2023-09-18T05:27:59;18.60;99.90
2839;DHT22;1427;48.510;9.060;2023-09-18T05:30:30;18.60;99.90
2839;DHT22;1427;48.510;9.060;2023-09-18T05:33:02;18.70;99.90
2839;DHT22;1427;48.510;9.060;2023-09-18T05:35:32;18.70;99.90
2839;DHT22;1427;48.510;9.060;2023-09-18T05:38:02;18.80;99.90
2839;DHT22;1427;48.510;9.060;2023-09-18T05:40:32;18.80;99.90
2839;DHT22;1427;48.510;9.060;2023-09-18T05:43:00;18.90;99.90
2839;DHT22;1427;48.510;9.060;2023-09-18T05:45:29;19.10;99.90
2839;DHT22;1427;48.510;9.060;2023-09-18T05:47:59;19.00;99.90
2839;DHT22;1427;48.510;9.060;2023-09-18T05:50:33;19.10;99.90
2839;DHT22;1427;48.510;9.060;2023-09-18T05:53:04;19.00;99.90
2839;DHT22;1427;48.510;9.060;2023-09-18T05:55:33;19.00;99.90
2839;DHT22;1427;48.510;9.060;2023-09-18T05:58:02;19.00;99.90
2839;DHT22;1427;48.510;9.060;2023-09-18T06:00:32;19.10;99.90
2839;DHT22;1427;48.510;9.060;2023-09-18T06:03:00;19.10;99.90
2839;DHT22;1427;48.510;9.060;2023-09-18T06:05:28;19.20;99.90
2839;DHT22;1427;48.510;9.060;2023-09-18T06:07:59;19.20;99.90
2839;DHT22;1427;48.510;9.060;2023-09-18T06:10:28;19.10;99.90
2839;DHT22;1427;48.510;9.060;2023-09-18T06:12:56;19.10;99.90
2839;DHT22;1427;48.510;9.060;2023-09-18T06:15:31;19.20;99.90
2839;DHT22;1427;48.510;9.060;2023-09-18T06:17:59;19.20;99.90
2839;DHT22;1427;48.510;9.060;2023-09-18T06:20:27;19.20;99.90
2839;DHT22;1427;48.510;9.060;2023-09-18T06:22:56;19.20;99.90
2839;DHT22;1427;48.510;9.060;2023-09-18T06:25:24;19.30;99.90
2839;DHT22;1427;48.510;9.060;2023-09-18T06:27:53;19.50;99.90
2839;DHT22;1427;48.510;9.060;2023-09-18T06:30:21;19.40;99.90
2839;DHT22;1427;48.510;9.060;2023-09-18T06:32:50;19.30;99.90
2839;DHT22;1427;48.510;9.060;2023-09-18T06:35:20;19.30;99.90
2839;DHT22;1427;48.510;9.060;2023-09-18T06:37:48;19.20;99.90
2839;DHT22;1427;48.510;9.060;2023-09-18T06:40:16;19.30;99.90
2839;DHT22;1427;48.510;9.060;2023-09-18T06:42:44;19.30;99.90
2839;DHT22;1427;48.510;9.060;2023-09-18T06:45:14;19.40;99.90
2839;DHT22;1427;48.510;9.060;2023-09-18T06:47:42;19.30;99.90
2839;DHT22;1427;48.510;9.060;2023-09-18T06:50:10;19.40;99.90
2839;DHT22;1427;48.510;9.060;2023-09-18T06:52:39;19.30;99.90
2839;DHT22;1427;48.510;9.060;2023-09-18T06:55:08;19.30;99.90
2839;DHT22;1427;48.510;9.060;2023-09-18T06:57:36;19.40;99.90
2839;DHT22;1427;48.510;9.060;2023-09-18T07:00:06;19.40;99.90
2839;DHT22;1427;48.510;9.060;2023-09-18T07:02:36;19.40;99.90
2839;DHT22;1427;48.510;9.060;2023-09-18T07:05:05;19.50;99.90
2839;DHT22;1427;48.510;9.060;2023-09-18T07:07:34;19.60;99.90
2839;DHT22;1427;48.510;9.060;2023-09-18T07:10:02;19.60;99.90
2839;DHT22;1427;48.510;9.060;2023-09-18T07:12:31;19.60;99.90
2839;DHT22;1427;48.510;9.060;2023-09-18T07:15:01;19.50;99.90
2839;DHT22;1427;48.510;9.060;2023-09-18T07:17:31;19.60;99.90
2839;DHT22;1427;48.510;9.060;2023-09-18T07:20:01;19.60;99.90
2839;DHT22;1427;48.510;9.060;2023-09-18T07:22:36;19.60;99.90
2839;DHT22;1427;48.510;9.060;2023-09-18T07:25:06;19.60;99.90
2839;DHT22;1427;48.510;9.060;2023-09-18T07:27:34;19.60;99.90
2839;DHT22;1427;48.510;9.060;2023-09-18T07:30:06;19.70;99.90
2839;DHT22;1427;48.510;9.060;2023-09-18T07:32:35;19.80;99.90
2839;DHT22;1427;48.510;9.060;2023-09-18T07:35:07;19.90;99.90
2839;DHT22;1427;48.510;9.060;2023-09-18T07:37:36;20.00;99.90
2839;DHT22;1427;48.510;9.060;2023-09-18T07:40:05;20.00;99.90
2839;DHT22;1427;48.510;9.060;2023-09-18T07:42:34;20.10;99.90
2839;DHT22;1427;48.510;9.060;2023-09-18T07:45:02;20.10;99.90
2839;DHT22;1427;48.510;9.060;2023-09-18T07:47:31;20.10;99.90
2839;DHT22;1427;48.510;9.060;2023-09-18T07:49:59;20.20;99.90
2839;DHT22;1427;48.510;9.060;2023-09-18T07:52:29;20.30;99.90
2839;DHT22;1427;48.510;9.060;2023-09-18T07:54:58;20.30;99.90
2839;DHT22;1427;48.510;9.060;2023-09-18T07:57:27;20.40;99.90
2839;DHT22;1427;48.510;9.060;2023-09-18T07:59:57;20.40;99.90
2839;DHT22;1427;48.510;9.060;2023-09-18T08:02:25;20.50;99.90
2839;DHT22;1427;48.510;9.060;2023-09-18T08:04:56;20.50;99.90
2839;DHT22;1427;48.510;9.060;2023-09-18T08:07:24;20.40;99.90
2839;DHT22;1427;48.510;9.060;2023-09-18T08:09:53;20.20;99.90
2839;DHT22;1427;48.510;9.060;2023-09-18T08:12:22;20.20;99.90
2839;DHT22;1427;48.510;9.060;2023-09-18T08:14:50;20.10;99.90
2839;DHT22;1427;48.510;9.060;2023-09-18T08:17:18;20.10;99.90
2839;DHT22;1427;48.510;9.060;2023-09-18T08:19:50;20.00;99.90
2839;DHT22;1427;48.510;9.060;2023-09-18T08:22:18;19.90;99.90
2839;DHT22;1427;48.510;9.060;2023-09-18T08:24:47;19.90;99.90
2839;DHT22;1427;48.510;9.060;2023-09-18T08:27:17;19.80;99.90
2839;DHT22;1427;48.510;9.060;2023-09-18T08:29:45;19.60;99.90
2839;DHT22;1427;48.510;9.060;2023-09-18T08:32:14;19.50;99.90
2839;DHT22;1427;48.510;9.060;2023-09-18T08:34:42;19.30;99.90
2839;DHT22;1427;48.510;9.060;2023-09-18T08:37:10;19.10;99.90
2839;DHT22;1427;48.510;9.060;2023-09-18T08:39:39;18.90;99.90
2839;DHT22;1427;48.510;9.060;2023-09-18T08:42:09;18.90;99.90
2839;DHT22;1427;48.510;9.060;2023-09-18T08:44:42;18.80;99.90
2839;DHT22;1427;48.510;9.060;2023-09-18T08:47:14;18.80;99.90
2839;DHT22;1427;48.510;9.060;2023-09-18T08:49:43;18.80;99.90
2839;DHT22;1427;48.510;9.060;2023-09-18T08:52:13;18.90;99.90
2839;DHT22;1427;48.510;9.060;2023-09-18T08:54:43;18.80;99.90
2839;DHT22;1427;48.510;9.060;2023-09-18T08:57:11;18.70;99.90
2839;DHT22;1427;48.510;9.060;2023-09-18T08:59:41;18.80;99.90
2839;DHT22;1427;48.510;9.060;2023-09-18T09:02:09;18.70;99.90
2839;DHT22;1427;48.510;9.060;2023-09-18T09:04:39;18.70;99.90
2839;DHT22;1427;48.510;9.060;2023-09-18T09:07:07;18.70;99.90
2839;DHT22;1427;48.510;9.060;2023-09-18T09:09:35;18.70;99.90
2839;DHT22;1427;48.510;9.060;2023-09-18T09:12:05;18.70;99.90
2839;DHT22;1427;48.510;9.060;2023-09-18T09:14:33;18.80;99.90
2839;DHT22;1427;48.510;9.060;2023-09-18T09:17:03;18.90;99.90
2839;DHT22;1427;48.510;9.060;2023-09-18T09:19:32;19.00;99.90
2839;DHT22;1427;48.510;9.060;2023-09-18T09:22:04;19.00;99.90
2839;DHT22;1427;48.510;9.060;2023-09-18T09:24:36;19.00;99.90
2839;DHT22;1427;48.510;9.060;2023-09-18T09:27:05;19.10;99.90
2839;DHT22;1427;48.510;9.060;2023-09-18T09:29:33;19.10;99.90
2839;DHT22;1427;48.510;9.060;2023-09-18T09:32:17;19.10;99.90
2839;DHT22;1427;48.510;9.060;2023-09-18T09:34:46;19.20;99.90
2839;DHT22;1427;48.510;9.060;2023-09-18T09:37:15;19.30;99.90
2839;DHT22;1427;48.510;9.060;2023-09-18T09:39:50;19.30;99.90
2839;DHT22;1427;48.510;9.060;2023-09-18T09:42:19;19.40;99.90
2839;DHT22;1427;48.510;9.060;2023-09-18T09:45:02;19.40;99.90
2839;DHT22;1427;48.510;9.060;2023-09-18T09:47:34;19.40;99.90
2839;DHT22;1427;48.510;9.060;2023-09-18T09:50:10;19.60;99.90
2839;DHT22;1427;48.510;9.060;2023-09-18T09:52:45;19.60;99.90
2839;DHT22;1427;48.510;9.060;2023-09-18T09:55:19;19.60;99.90
2839;DHT22;1427;48.510;9.060;2023-09-18T09:57:49;19.50;99.90
2839;DHT22;1427;48.510;9.060;2023-09-18T10:00:17;19.50;99.90
2839;DHT22;1427;48.510;9.060;2023-09-18T10:03:00;19.60;99.90
2839;DHT22;1427;48.510;9.060;2023-09-18T10:05:34;19.70;99.90
2839;DHT22;1427;48.510;9.060;2023-09-18T10:08:06;19.70;99.90
2839;DHT22;1427;48.510;9.060;2023-09-18T10:10:38;19.60;99.90
2839;DHT22;1427;48.510;9.060;2023-09-18T10:13:09;19.50;99.90
2839;DHT22;1427;48.510;9.060;2023-09-18T10:15:39;19.30;99.90
2839;DHT22;1427;48.510;9.060;2023-09-18T10:18:25;19.30;99.90
2839;DHT22;1427;48.510;9.060;2023-09-18T10:21:00;19.30;99.90
2839;DHT22;1427;48.510;9.060;2023-09-18T10:23:39;19.30;99.90
2839;DHT22;1427;48.510;9.060;2023-09-18T10:26:14;19.30;99.90
2839;DHT22;1427;48.510;9.060;2023-09-18T10:28:48;19.40;99.90
2839;DHT22;1427;48.510;9.060;2023-09-18T10:31:20;19.50;99.90
2839;DHT22;1427;48.510;9.060;2023-09-18T10:33:51;19.50;99.90
2839;DHT22;1427;48.510;9.060;2023-09-18T10:36:21;19.60;99.90
2839;DHT22;1427;48.510;9.060;2023-09-18T10:38:51;19.60;99.90
2839;DHT22;1427;48.510;9.060;2023-09-18T10:41:21;19.50;99.90
2839;DHT22;1427;48.510;9.060;2023-09-18T10:43:53;19.50;99.90
2839;DHT22;1427;48.510;9.060;2023-09-18T10:46:24;19.70;99.90
2839;DHT22;1427;48.510;9.060;2023-09-18T10:48:54;19.60;99.90
2839;DHT22;1427;48.510;9.060;2023-09-18T10:51:24;19.60;99.90
2839;DHT22;1427;48.510;9.060;2023-09-18T10:53:52;19.70;99.90
2839;DHT22;1427;48.510;9.060;2023-09-18T10:56:21;19.70;99.90
2839;DHT22;1427;48.510;9.060;2023-09-18T10:58:56;19.90;99.90
2839;DHT22;1427;48.510;9.060;2023-09-18T11:01:27;19.90;99.90
2839;DHT22;1427;48.510;9.060;2023-09-18T11:04:00;19.90;99.90
2839;DHT22;1427;48.510;9.060;2023-09-18T11:06:29;19.90;99.90
2839;DHT22;1427;48.510;9.060;2023-09-18T11:09:02;19.70;99.90
2839;DHT22;1427;48.510;9.060;2023-09-18T11:11:31;19.60;99.90
2839;DHT22;1427;48.510;9.060;2023-09-18T11:14:02;19.70;99.90
2839;DHT22;1427;48.510;9.060;2023-09-18T11:16:38;19.70;99.90
2839;DHT22;1427;48.510;9.060;2023-09-18T11:19:12;19.70;99.90
2839;DHT22;1427;48.510;9.060;2023-09-18T11:21:42;19.40;99.90
2839;DHT22;1427;48.510;9.060;2023-09-18T11:24:16;19.40;99.90
2839;DHT22;1427;48.510;9.060;2023-09-18T11:26:46;19.50;99.90
2839;DHT22;1427;48.510;9.060;2023-09-18T11:29:17;19.40;99.90
2839;DHT22;1427;48.510;9.060;2023-09-18T11:31:48;19.30;99.90
2839;DHT22;1427;48.510;9.060;2023-09-18T11:34:22;19.40;99.90
2839;DHT22;1427;48.510;9.060;2023-09-18T11:36:51;19.40;99.90
2839;DHT22;1427;48.510;9.060;2023-09-18T11:39:35;19.50;99.90
2839;DHT22;1427;48.510;9.060;2023-09-18T11:42:10;19.60;99.90
2839;DHT22;1427;48.510;9.060;2023-09-18T11:44:39;19.60;99.90
2839;DHT22;1427;48.510;9.060;2023-09-18T11:47:15;19.70;99.90
2839;DHT22;1427;48.510;9.060;2023-09-18T11:49:51;19.70;99.90
2839;DHT22;1427;48.510;9.060;2023-09-18T11:52:23;19.80;99.90
2839;DHT22;1427;48.510;9.060;2023-09-18T11:54:52;19.90;99.90
2839;DHT22;1427;48.510;9.060;2023-09-18T11:57:21;20.00;99.90
2839;DHT22;1427;48.510;9.060;2023-09-18T11:59:50;20.00;99.90
2839;DHT22;1427;48.510;9.060;2023-09-18T12:02:25;20.00;99.90
2839;DHT22;1427;48.510;9.060;2023-09-18T12:05:10;20.00;99.90
2839;DHT22;1427;48.510;9.060;2023-09-18T12:07:39;20.10;99.90
2839;DHT22;1427;48.510;9.060;2023-09-18T12:10:11;20.00;99.90
2839;DHT22;1427;48.510;9.060;2023-09-18T12:12:39;19.90;99.90
2839;DHT22;1427;48.510;9.060;2023-09-18T12:15:11;19.90;99.90
2839;DHT22;1427;48.510;9.060;2023-09-18T12:17:39;20.10;99.90
2839;DHT22;1427;48.510;9.060;2023-09-18T12:20:14;20.20;99.90
2839;DHT22;1427;48.510;9.060;2023-09-18T12:22:47;20.30;99.90
2839;DHT22;1427;48.510;9.060;2023-09-18T12:25:16;20.50;99.90
2839;DHT22;1427;48.510;9.060;2023-09-18T12:27:46;20.80;99.90
2839;DHT22;1427;48.510;9.060;2023-09-18T12:30:19;21.00;99.90
2839;DHT22;1427;48.510;9.060;2023-09-18T12:32:51;21.20;99.90
2839;DHT22;1427;48.510;9.060;2023-09-18T12:35:22;21.30;99.90
2839;DHT22;1427;48.510;9.060;2023-09-18T12:37:52;21.40;99.90
2839;DHT22;1427;48.510;9.060;2023-09-18T12:40:24;21.40;99.90
2839;DHT22;1427;48.510;9.060;2023-09-18T12:42:54;21.40;99.90
2839;DHT22;1427;48.510;9.060;2023-09-18T12:45:23;21.40;99.90
2839;DHT22;1427;48.510;9.060;2023-09-18T12:47:55;21.40;99.90
2839;DHT22;1427;48.510;9.060;2023-09-18T12:50:25;21.40;99.90
2839;DHT22;1427;48.510;9.060;2023-09-18T12:52:54;21.40;99.90
2839;DHT22;1427;48.510;9.060;2023-09-18T12:55:34;21.60;99.90
2839;DHT22;1427;48.510;9.060;2023-09-18T12:58:03;21.60;99.90
2839;DHT22;1427;48.510;9.060;2023-09-18T13:00:34;21.60;99.90
2839;DHT22;1427;48.510;9.060;2023-09-18T13:03:03;21.50;99.90
2839;DHT22;1427;48.510;9.060;2023-09-18T13:05:33;21.50;99.90
2839;DHT22;1427;48.510;9.060;2023-09-18T13:08:03;21.60;99.90
2839;DHT22;1427;48.510;9.060;2023-09-18T13:10:42;21.60;99.90
2839;DHT22;1427;48.510;9.060;2023-09-18T13:13:16;21.60;99.90
2839;DHT22;1427;48.510;9.060;2023-09-18T13:15:45;21.70;99.90
2839;DHT22;1427;48.510;9.060;2023-09-18T13:18:15;21.70;99.90
2839;DHT22;1427;48.510;9.060;2023-09-18T13:20:47;21.90;99.90
2839;DHT22;1427;48.510;9.060;2023-09-18T13:23:15;22.10;99.90
2839;DHT22;1427;48.510;9.060;2023-09-18T13:25:48;22.20;99.90
2839;DHT22;1427;48.510;9.060;2023-09-18T13:28:16;22.30;99.90
2839;DHT22;1427;48.510;9.060;2023-09-18T13:30:48;22.20;99.90
2839;DHT22;1427;48.510;9.060;2023-09-18T13:33:16;22.20;99.90
2839;DHT22;1427;48.510;9.060;2023-09-18T13:35:46;22.20;99.90
2839;DHT22;1427;48.510;9.060;2023-09-18T13:38:15;22.20;99.90
2839;DHT22;1427;48.510;9.060;2023-09-18T13:40:45;22.10;99.90
2839;DHT22;1427;48.510;9.060;2023-09-18T13:43:14;22.00;99.90
2839;DHT22;1427;48.510;9.060;2023-09-18T13:45:43;22.00;99.90
2839;DHT22;1427;48.510;9.060;2023-09-18T13:48:11;22.00;99.90
2839;DHT22;1427;48.510;9.060;2023-09-18T13:50:39;22.00;99.90
2839;DHT22;1427;48.510;9.060;2023-09-18T13:53:09;22.00;99.90
2839;DHT22;1427;48.510;9.060;2023-09-18T13:55:37;21.90;99.90
2839;DHT22;1427;48.510;9.060;2023-09-18T13:58:05;21.90;99.90
2839;DHT22;1427;48.510;9.060;2023-09-18T14:00:33;21.90;99.90
2839;DHT22;1427;48.510;9.060;2023-09-18T14:03:02;21.80;99.90
2839;DHT22;1427;48.510;9.060;2023-09-18T14:05:31;21.70;99.90
2839;DHT22;1427;48.510;9.060;2023-09-18T14:08:01;21.70;99.90
2839;DHT22;1427;48.510;9.060;2023-09-18T14:10:32;21.80;99.90
2839;DHT22;1427;48.510;9.060;2023-09-18T14:13:00;21.70;99.90
2839;DHT22;1427;48.510;9.060;2023-09-18T14:15:28;21.70;99.90
2839;DHT22;1427;48.510;9.060;2023-09-18T14:17:57;21.70;99.90
2839;DHT22;1427;48.510;9.060;2023-09-18T14:20:26;21.70;99.90
2839;DHT22;1427;48.510;9.060;2023-09-18T14:22:54;21.80;99.90
2839;DHT22;1427;48.510;9.060;2023-09-18T14:25:22;21.90;99.90
2839;DHT22;1427;48.510;9.060;2023-09-18T14:27:52;21.80;99.90
2839;DHT22;1427;48.510;9.060;2023-09-18T14:30:20;21.80;99.90
2839;DHT22;1427;48.510;9.060;2023-09-18T14:32:53;21.70;99.90
2839;DHT22;1427;48.510;9.060;2023-09-18T14:35:21;21.60;99.90
2839;DHT22;1427;48.510;9.060;2023-09-18T14:37:50;21.60;99.90
2839;DHT22;1427;48.510;9.060;2023-09-18T14:40:18;21.60;99.90
2839;DHT22;1427;48.510;9.060;2023-09-18T14:42:47;21.70;99.90
2839;DHT22;1427;48.510;9.060;2023-09-18T14:45:17;21.60;99.90
2839;DHT22;1427;48.510;9.060;2023-09-18T14:47:45;21.60;99.90
2839;DHT22;1427;48.510;9.060;2023-09-18T14:50:14;21.60;99.90
2839;DHT22;1427;48.510;9.060;2023-09-18T14:52:42;21.60;99.90
2839;DHT22;1427;48.510;9.060;2023-09-18T14:55:10;21.70;99.90
2839;DHT22;1427;48.510;9.060;2023-09-18T14:57:39;21.60;99.90
2839;DHT22;1427;48.510;9.060;2023-09-18T15:00:09;21.70;99.90
2839;DHT22;1427;48.510;9.060;2023-09-18T15:02:41;21.70;99.90
2839;DHT22;1427;48.510;9.060;2023-09-18T15:05:09;21.60;99.90
2839;DHT22;1427;48.510;9.060;2023-09-18T15:07:39;21.60;99.90
2839;DHT22;1427;48.510;9.060;2023-09-18T15:10:08;21.50;99.90
2839;DHT22;1427;48.510;9.060;2023-09-18T15:12:37;21.50;99.90
2839;DHT22;1427;48.510;9.060;2023-09-18T15:15:08;21.50;99.90
2839;DHT22;1427;48.510;9.060;2023-09-18T15:17:36;21.50;99.90
2839;DHT22;1427;48.510;9.060;2023-09-18T15:20:08;21.60;99.90
2839;DHT22;1427;48.510;9.060;2023-09-18T15:22:39;21.80;99.90
2839;DHT22;1427;48.510;9.060;2023-09-18T15:25:07;21.90;99.90
2839;DHT22;1427;48.510;9.060;2023-09-18T15:27:36;21.90;99.90
2839;DHT22;1427;48.510;9.060;2023-09-18T15:30:05;21.90;99.90
2839;DHT22;1427;48.510;9.060;2023-09-18T15:32:46;21.80;99.90
2839;DHT22;1427;48.510;9.060;2023-09-18T15:35:16;21.80;99.90
2839;DHT22;1427;48.510;9.060;2023-09-18T15:37:44;21.70;99.90
2839;DHT22;1427;48.510;9.060;2023-09-18T15:40:12;21.60;99.90
2839;DHT22;1427;48.510;9.060;2023-09-18T15:42:42;21.50;99.90
2839;DHT22;1427;48.510;9.060;2023-09-18T15:45:11;21.50;99.90
2839;DHT22;1427;48.510;9.060;2023-09-18T15:47:40;21.50;99.90
2839;DHT22;1427;48.510;9.060;2023-09-18T15:50:10;21.50;99.90
2839;DHT22;1427;48.510;9.060;2023-09-18T15:52:39;21.40;99.90
2839;DHT22;1427;48.510;9.060;2023-09-18T15:55:08;21.40;99.90
2839;DHT22;1427;48.510;9.060;2023-09-18T15:57:37;21.40;99.90
2839;DHT22;1427;48.510;9.060;2023-09-18T16:00:09;21.40;99.90
2839;DHT22;1427;48.510;9.060;2023-09-18T16:02:37;21.30;99.90
2839;DHT22;1427;48.510;9.060;2023-09-18T16:05:06;21.40;99.90
2839;DHT22;1427;48.510;9.060;2023-09-18T16:07:36;21.30;99.90
2839;DHT22;1427;48.510;9.060;2023-09-18T16:10:08;21.30;99.90
2839;DHT22;1427;48.510;9.060;2023-09-18T16:12:37;21.30;99.90
2839;DHT22;1427;48.510;9.060;2023-09-18T16:15:07;21.30;99.90
2839;DHT22;1427;48.510;9.060;2023-09-18T16:17:35;21.30;99.90
2839;DHT22;1427;48.510;9.060;2023-09-18T16:20:04;21.30;99.90